Ana Sayfa
METAR-TAF:

METAR-TAF

Havaalanları :

Salalah, Umman

Enlem: 17-02N, Boylam: 054-05E, yükseklik: 20 m

Güncel hava durumu gözlemi

Rapor saat 01:50 UTC de 1 saat ve 32 dakika önce yapıldı.
Rüzgar değişken yönden 1 kt
Sıcaklık 20°C
Nem 83%
Basınç 1015 hPa
Görüş mesafesi 10 km veya daha fazla
2500 ft yükseklikte az bulutlu

METAR: OOSA 190150Z VRB01KT 9999 FEW025 20/17 Q1015 NOSIG

Saat: 07:22 (03:22 UTC)

Tahmin

Rapor saat 17:00 UTC de 10 saat ve 22 dakika önce yapıldı.
Ayın 18'si saat 18 UTC'den ayın 20'si saat 00 UTC'ye kadar geçerli Tahmin
Rüzgar değişken yönden 3 kt
Görüş mesafesi 10 km veya daha fazla
2500 ft yükseklikte parçalı bulutlu
Dönüşüyor
ayın 19'si saat 07 UTC'den ayın 19'si saat 09 UTC'ye kadar
Rüzgar güneydan 10 kt
Dönüşüyor
ayın 19'si saat 16 UTC'den ayın 19'si saat 18 UTC'ye kadar
Rüzgar değişken yönden 3 kt

TAF: OOSA 181700Z 1818/2000 VRB03KT 9999 SCT025 BECMG 1907/1909 18010KT BECMG 1916/1918 VRB03KT

4.000'den fazla havaalanı için hava durumu gözlemleri ve tahminleri (METAR ve TAF raporları).

Kullanılabilir istasyonlar harita üzerinde sarı ve kırmızı noktalarla gösterilir.

İstasyonun adını görmek için fareyi noktanın üzerinde gezdirin.

Sonrasında hava gözlem ve tahminlerini görmek için tıklayın.

Haritayı değiştirmek için: yaklaştırmak için siyah artı işaretli yeşil düğmeye ve uzaklaştırmak için de eksi işaretli düğmeye hızla tıklayın; bitişik haritalar için yeşil okları kullanın.


METAR-TAF: